sensor_id;sensor_type;location;lat;lon;timestamp;temperature;humidity
56172;DHT22;42052;41.634;-0.946;2022-09-01T00:00:45;27.30;56.00
56172;DHT22;42052;41.634;-0.946;2022-09-01T00:03:18;27.30;56.00
56172;DHT22;42052;41.634;-0.946;2022-09-01T00:05:48;27.30;56.00
56172;DHT22;42052;41.634;-0.946;2022-09-01T00:08:15;27.30;56.00
56172;DHT22;42052;41.634;-0.946;2022-09-01T00:10:41;27.30;56.00
56172;DHT22;42052;41.634;-0.946;2022-09-01T00:13:07;27.30;55.90
56172;DHT22;42052;41.634;-0.946;2022-09-01T00:15:34;27.30;55.90
56172;DHT22;42052;41.634;-0.946;2022-09-01T00:18:00;27.30;55.90
56172;DHT22;42052;41.634;-0.946;2022-09-01T00:20:27;27.30;55.80
56172;DHT22;42052;41.634;-0.946;2022-09-01T00:22:53;27.30;55.80
56172;DHT22;42052;41.634;-0.946;2022-09-01T00:25:20;27.30;55.90
56172;DHT22;42052;41.634;-0.946;2022-09-01T00:27:47;27.30;55.90
56172;DHT22;42052;41.634;-0.946;2022-09-01T00:30:14;27.30;55.80
56172;DHT22;42052;41.634;-0.946;2022-09-01T00:32:39;27.30;55.70
56172;DHT22;42052;41.634;-0.946;2022-09-01T00:35:15;27.30;55.80
56172;DHT22;42052;41.634;-0.946;2022-09-01T00:37:41;27.40;55.80
56172;DHT22;42052;41.634;-0.946;2022-09-01T00:40:08;27.30;55.70
56172;DHT22;42052;41.634;-0.946;2022-09-01T00:42:36;27.40;55.80
56172;DHT22;42052;41.634;-0.946;2022-09-01T00:45:05;27.30;55.70
56172;DHT22;42052;41.634;-0.946;2022-09-01T00:47:32;27.30;55.60
56172;DHT22;42052;41.634;-0.946;2022-09-01T00:49:57;27.40;55.70
56172;DHT22;42052;41.634;-0.946;2022-09-01T00:52:34;27.30;55.60
56172;DHT22;42052;41.634;-0.946;2022-09-01T00:55:09;27.30;55.50
56172;DHT22;42052;41.634;-0.946;2022-09-01T00:57:36;27.40;55.60
56172;DHT22;42052;41.634;-0.946;2022-09-01T01:00:29;27.40;55.50
56172;DHT22;42052;41.634;-0.946;2022-09-01T01:02:56;27.40;55.50
56172;DHT22;42052;41.634;-0.946;2022-09-01T01:05:30;27.40;55.50
56172;DHT22;42052;41.634;-0.946;2022-09-01T01:07:59;27.40;55.50
56172;DHT22;42052;41.634;-0.946;2022-09-01T01:10:29;27.40;55.50
56172;DHT22;42052;41.634;-0.946;2022-09-01T01:12:57;27.40;55.50
56172;DHT22;42052;41.634;-0.946;2022-09-01T01:15:27;27.40;55.50
56172;DHT22;42052;41.634;-0.946;2022-09-01T01:17:54;27.40;55.40
56172;DHT22;42052;41.634;-0.946;2022-09-01T01:20:22;27.40;55.40
56172;DHT22;42052;41.634;-0.946;2022-09-01T01:23:40;27.40;55.40
56172;DHT22;42052;41.634;-0.946;2022-09-01T01:26:10;27.40;55.30
56172;DHT22;42052;41.634;-0.946;2022-09-01T01:28:39;27.40;55.40
56172;DHT22;42052;41.634;-0.946;2022-09-01T01:31:08;27.40;55.30
56172;DHT22;42052;41.634;-0.946;2022-09-01T01:33:52;27.40;55.20
56172;DHT22;42052;41.634;-0.946;2022-09-01T01:36:21;27.40;55.20
56172;DHT22;42052;41.634;-0.946;2022-09-01T01:38:51;27.40;55.20
56172;DHT22;42052;41.634;-0.946;2022-09-01T01:41:18;27.40;55.20
56172;DHT22;42052;41.634;-0.946;2022-09-01T01:43:45;27.40;55.10
56172;DHT22;42052;41.634;-0.946;2022-09-01T01:46:12;27.40;55.10
56172;DHT22;42052;41.634;-0.946;2022-09-01T01:48:40;27.50;55.20
56172;DHT22;42052;41.634;-0.946;2022-09-01T01:51:08;27.40;55.10
56172;DHT22;42052;41.634;-0.946;2022-09-01T01:53:36;27.40;55.10
56172;DHT22;42052;41.634;-0.946;2022-09-01T01:56:02;27.40;55.00
56172;DHT22;42052;41.634;-0.946;2022-09-01T01:58:28;27.40;55.00
56172;DHT22;42052;41.634;-0.946;2022-09-01T02:00:55;27.40;55.10
56172;DHT22;42052;41.634;-0.946;2022-09-01T02:03:24;27.40;55.00
56172;DHT22;42052;41.634;-0.946;2022-09-01T02:05:52;27.50;55.00
56172;DHT22;42052;41.634;-0.946;2022-09-01T02:08:19;27.40;55.00
56172;DHT22;42052;41.634;-0.946;2022-09-01T02:10:49;27.50;55.00
56172;DHT22;42052;41.634;-0.946;2022-09-01T02:13:18;27.50;55.00
56172;DHT22;42052;41.634;-0.946;2022-09-01T02:15:50;27.50;55.00
56172;DHT22;42052;41.634;-0.946;2022-09-01T02:18:25;27.50;55.00
56172;DHT22;42052;41.634;-0.946;2022-09-01T02:20:53;27.50;55.00
56172;DHT22;42052;41.634;-0.946;2022-09-01T02:23:21;27.40;54.90
56172;DHT22;42052;41.634;-0.946;2022-09-01T02:25:54;27.50;55.00
56172;DHT22;42052;41.634;-0.946;2022-09-01T02:28:21;27.50;55.00
56172;DHT22;42052;41.634;-0.946;2022-09-01T02:30:50;27.40;54.80
56172;DHT22;42052;41.634;-0.946;2022-09-01T02:33:20;27.40;54.80
56172;DHT22;42052;41.634;-0.946;2022-09-01T02:35:48;27.40;54.90
56172;DHT22;42052;41.634;-0.946;2022-09-01T02:38:15;27.40;54.80
56172;DHT22;42052;41.634;-0.946;2022-09-01T02:40:45;27.40;54.80
56172;DHT22;42052;41.634;-0.946;2022-09-01T02:43:13;27.50;54.80
56172;DHT22;42052;41.634;-0.946;2022-09-01T02:45:41;27.50;54.80
56172;DHT22;42052;41.634;-0.946;2022-09-01T02:48:08;27.50;54.80
56172;DHT22;42052;41.634;-0.946;2022-09-01T02:50:36;27.50;54.70
56172;DHT22;42052;41.634;-0.946;2022-09-01T02:53:03;27.50;54.70
56172;DHT22;42052;41.634;-0.946;2022-09-01T02:55:35;27.50;54.70
56172;DHT22;42052;41.634;-0.946;2022-09-01T02:58:01;27.50;54.70
56172;DHT22;42052;41.634;-0.946;2022-09-01T03:00:27;27.50;54.60
56172;DHT22;42052;41.634;-0.946;2022-09-01T03:03:00;27.50;54.70
56172;DHT22;42052;41.634;-0.946;2022-09-01T03:05:28;27.50;54.60
56172;DHT22;42052;41.634;-0.946;2022-09-01T03:08:00;27.50;54.50
56172;DHT22;42052;41.634;-0.946;2022-09-01T03:10:30;27.50;54.50
56172;DHT22;42052;41.634;-0.946;2022-09-01T03:13:06;27.50;54.50
56172;DHT22;42052;41.634;-0.946;2022-09-01T03:15:33;27.50;54.50
56172;DHT22;42052;41.634;-0.946;2022-09-01T03:18:01;27.50;54.50
56172;DHT22;42052;41.634;-0.946;2022-09-01T03:20:29;27.50;54.40
56172;DHT22;42052;41.634;-0.946;2022-09-01T03:22:58;27.50;54.40
56172;DHT22;42052;41.634;-0.946;2022-09-01T03:25:24;27.50;54.40
56172;DHT22;42052;41.634;-0.946;2022-09-01T03:27:53;27.50;54.30
56172;DHT22;42052;41.634;-0.946;2022-09-01T03:30:19;27.50;54.30
56172;DHT22;42052;41.634;-0.946;2022-09-01T03:32:45;27.50;54.30
56172;DHT22;42052;41.634;-0.946;2022-09-01T03:35:12;27.50;54.30
56172;DHT22;42052;41.634;-0.946;2022-09-01T03:37:38;27.50;54.20
56172;DHT22;42052;41.634;-0.946;2022-09-01T03:40:10;27.50;54.20
56172;DHT22;42052;41.634;-0.946;2022-09-01T03:42:36;27.50;55.00
56172;DHT22;42052;41.634;-0.946;2022-09-01T03:45:04;27.50;54.20
56172;DHT22;42052;41.634;-0.946;2022-09-01T03:47:37;27.50;54.20
56172;DHT22;42052;41.634;-0.946;2022-09-01T03:50:07;27.50;54.20
56172;DHT22;42052;41.634;-0.946;2022-09-01T03:52:42;27.50;54.20
56172;DHT22;42052;41.634;-0.946;2022-09-01T03:55:09;27.50;54.20
56172;DHT22;42052;41.634;-0.946;2022-09-01T03:57:35;27.50;54.10
56172;DHT22;42052;41.634;-0.946;2022-09-01T04:00:07;27.50;54.10
56172;DHT22;42052;41.634;-0.946;2022-09-01T04:02:51;27.50;54.10
56172;DHT22;42052;41.634;-0.946;2022-09-01T04:05:24;27.50;54.10
56172;DHT22;42052;41.634;-0.946;2022-09-01T04:07:54;27.50;54.10
56172;DHT22;42052;41.634;-0.946;2022-09-01T04:10:22;27.50;54.10
56172;DHT22;42052;41.634;-0.946;2022-09-01T04:12:48;27.50;54.10
56172;DHT22;42052;41.634;-0.946;2022-09-01T04:15:16;27.50;54.10
56172;DHT22;42052;41.634;-0.946;2022-09-01T04:17:45;27.50;54.10
56172;DHT22;42052;41.634;-0.946;2022-09-01T04:20:38;27.50;54.10
56172;DHT22;42052;41.634;-0.946;2022-09-01T04:23:17;27.50;54.10
56172;DHT22;42052;41.634;-0.946;2022-09-01T04:25:56;27.50;54.10
56172;DHT22;42052;41.634;-0.946;2022-09-01T04:28:23;27.50;54.10
56172;DHT22;42052;41.634;-0.946;2022-09-01T04:30:53;27.50;54.00
56172;DHT22;42052;41.634;-0.946;2022-09-01T04:33:21;27.50;54.00
56172;DHT22;42052;41.634;-0.946;2022-09-01T04:35:48;27.50;54.00
56172;DHT22;42052;41.634;-0.946;2022-09-01T04:38:16;27.50;54.00
56172;DHT22;42052;41.634;-0.946;2022-09-01T04:40:42;27.50;54.00
56172;DHT22;42052;41.634;-0.946;2022-09-01T04:43:08;27.50;54.00
56172;DHT22;42052;41.634;-0.946;2022-09-01T04:45:36;27.50;53.90
56172;DHT22;42052;41.634;-0.946;2022-09-01T04:48:03;27.50;53.90
56172;DHT22;42052;41.634;-0.946;2022-09-01T04:50:29;27.50;53.70
56172;DHT22;42052;41.634;-0.946;2022-09-01T04:53:01;27.50;53.70
56172;DHT22;42052;41.634;-0.946;2022-09-01T04:55:28;27.50;53.70
56172;DHT22;42052;41.634;-0.946;2022-09-01T04:57:58;27.50;53.70
56172;DHT22;42052;41.634;-0.946;2022-09-01T05:00:26;27.50;53.70
56172;DHT22;42052;41.634;-0.946;2022-09-01T05:03:03;27.50;55.10
56172;DHT22;42052;41.634;-0.946;2022-09-01T05:05:47;27.50;56.00
56172;DHT22;42052;41.634;-0.946;2022-09-01T05:08:18;27.50;55.90
56172;DHT22;42052;41.634;-0.946;2022-09-01T05:10:47;27.50;56.90
56172;DHT22;42052;41.634;-0.946;2022-09-01T05:13:19;27.50;57.80
56172;DHT22;42052;41.634;-0.946;2022-09-01T05:15:47;27.50;57.40
56172;DHT22;42052;41.634;-0.946;2022-09-01T05:18:24;27.50;57.30
56172;DHT22;42052;41.634;-0.946;2022-09-01T05:20:53;27.50;57.20
56172;DHT22;42052;41.634;-0.946;2022-09-01T05:23:20;27.50;56.80
56172;DHT22;42052;41.634;-0.946;2022-09-01T05:25:48;27.50;56.40
56172;DHT22;42052;41.634;-0.946;2022-09-01T05:28:16;27.50;56.10
56172;DHT22;42052;41.634;-0.946;2022-09-01T05:30:45;27.50;55.80
56172;DHT22;42052;41.634;-0.946;2022-09-01T05:33:13;27.50;55.80
56172;DHT22;42052;41.634;-0.946;2022-09-01T05:35:59;27.50;56.50
56172;DHT22;42052;41.634;-0.946;2022-09-01T05:38:26;27.50;55.60
56172;DHT22;42052;41.634;-0.946;2022-09-01T05:41:00;27.40;55.40
56172;DHT22;42052;41.634;-0.946;2022-09-01T05:43:29;27.50;55.20
56172;DHT22;42052;41.634;-0.946;2022-09-01T05:45:56;27.50;55.10
56172;DHT22;42052;41.634;-0.946;2022-09-01T05:48:23;27.40;54.90
56172;DHT22;42052;41.634;-0.946;2022-09-01T05:50:50;27.50;54.90
56172;DHT22;42052;41.634;-0.946;2022-09-01T05:53:20;27.50;54.80
56172;DHT22;42052;41.634;-0.946;2022-09-01T05:55:50;27.50;54.80
56172;DHT22;42052;41.634;-0.946;2022-09-01T05:58:23;27.50;54.70
56172;DHT22;42052;41.634;-0.946;2022-09-01T06:00:51;27.40;54.60
56172;DHT22;42052;41.634;-0.946;2022-09-01T06:03:19;27.40;54.40
56172;DHT22;42052;41.634;-0.946;2022-09-01T06:05:47;27.40;54.40
56172;DHT22;42052;41.634;-0.946;2022-09-01T06:08:20;27.40;54.30
56172;DHT22;42052;41.634;-0.946;2022-09-01T06:10:46;27.40;54.30
56172;DHT22;42052;41.634;-0.946;2022-09-01T06:13:13;27.40;54.20
56172;DHT22;42052;41.634;-0.946;2022-09-01T06:15:41;27.40;54.10
56172;DHT22;42052;41.634;-0.946;2022-09-01T06:18:09;27.40;54.00
56172;DHT22;42052;41.634;-0.946;2022-09-01T06:20:40;27.40;53.90
56172;DHT22;42052;41.634;-0.946;2022-09-01T06:23:10;27.40;54.00
56172;DHT22;42052;41.634;-0.946;2022-09-01T06:25:44;27.30;53.90
56172;DHT22;42052;41.634;-0.946;2022-09-01T06:28:15;27.40;54.10
56172;DHT22;42052;41.634;-0.946;2022-09-01T06:30:43;27.40;54.00
56172;DHT22;42052;41.634;-0.946;2022-09-01T06:33:11;27.40;54.00
56172;DHT22;42052;41.634;-0.946;2022-09-01T06:35:39;27.40;54.00
56172;DHT22;42052;41.634;-0.946;2022-09-01T06:38:08;27.40;54.00
56172;DHT22;42052;41.634;-0.946;2022-09-01T06:40:35;27.40;54.00
56172;DHT22;42052;41.634;-0.946;2022-09-01T06:43:04;27.40;53.90
56172;DHT22;42052;41.634;-0.946;2022-09-01T06:45:54;27.40;53.90
56172;DHT22;42052;41.634;-0.946;2022-09-01T06:48:19;27.40;53.90
56172;DHT22;42052;41.634;-0.946;2022-09-01T06:50:46;27.40;53.90
56172;DHT22;42052;41.634;-0.946;2022-09-01T06:53:12;27.40;53.90
56172;DHT22;42052;41.634;-0.946;2022-09-01T06:55:41;27.40;53.90
56172;DHT22;42052;41.634;-0.946;2022-09-01T06:58:09;27.40;53.90
56172;DHT22;42052;41.634;-0.946;2022-09-01T07:00:41;27.40;53.90
56172;DHT22;42052;41.634;-0.946;2022-09-01T07:03:13;27.40;54.00
56172;DHT22;42052;41.634;-0.946;2022-09-01T07:05:40;27.40;54.00
56172;DHT22;42052;41.634;-0.946;2022-09-01T07:08:08;27.40;53.90
56172;DHT22;42052;41.634;-0.946;2022-09-01T07:10:43;27.40;53.90
56172;DHT22;42052;41.634;-0.946;2022-09-01T07:13:12;27.40;53.90
56172;DHT22;42052;41.634;-0.946;2022-09-01T07:15:46;27.30;53.70
56172;DHT22;42052;41.634;-0.946;2022-09-01T07:18:18;27.40;53.90
56172;DHT22;42052;41.634;-0.946;2022-09-01T07:20:46;27.30;53.80
56172;DHT22;42052;41.634;-0.946;2022-09-01T07:23:14;27.40;53.80
56172;DHT22;42052;41.634;-0.946;2022-09-01T07:25:43;27.30;53.70
56172;DHT22;42052;41.634;-0.946;2022-09-01T07:28:10;27.40;53.90
56172;DHT22;42052;41.634;-0.946;2022-09-01T07:30:43;27.40;54.00
56172;DHT22;42052;41.634;-0.946;2022-09-01T07:33:11;27.30;53.90
56172;DHT22;42052;41.634;-0.946;2022-09-01T07:35:39;27.40;54.00
56172;DHT22;42052;41.634;-0.946;2022-09-01T07:38:05;27.40;54.00
56172;DHT22;42052;41.634;-0.946;2022-09-01T07:40:33;27.40;54.00
56172;DHT22;42052;41.634;-0.946;2022-09-01T07:43:05;27.40;54.20
56172;DHT22;42052;41.634;-0.946;2022-09-01T07:45:34;27.40;54.10
56172;DHT22;42052;41.634;-0.946;2022-09-01T07:48:06;27.40;54.00
56172;DHT22;42052;41.634;-0.946;2022-09-01T07:50:39;27.40;53.80
56172;DHT22;42052;41.634;-0.946;2022-09-01T07:53:05;27.40;53.80
56172;DHT22;42052;41.634;-0.946;2022-09-01T07:55:32;27.40;53.90
56172;DHT22;42052;41.634;-0.946;2022-09-01T07:57:59;27.30;53.80
56172;DHT22;42052;41.634;-0.946;2022-09-01T08:00:25;27.40;53.90
56172;DHT22;42052;41.634;-0.946;2022-09-01T08:02:52;27.40;53.70
56172;DHT22;42052;41.634;-0.946;2022-09-01T08:05:18;27.40;53.70
56172;DHT22;42052;41.634;-0.946;2022-09-01T08:07:51;27.30;53.60
56172;DHT22;42052;41.634;-0.946;2022-09-01T08:10:17;27.40;53.80
56172;DHT22;42052;41.634;-0.946;2022-09-01T08:12:43;27.30;53.50
56172;DHT22;42052;41.634;-0.946;2022-09-01T08:15:09;27.30;53.50
56172;DHT22;42052;41.634;-0.946;2022-09-01T08:17:37;27.30;53.60
56172;DHT22;42052;41.634;-0.946;2022-09-01T08:20:04;27.30;53.50
56172;DHT22;42052;41.634;-0.946;2022-09-01T08:22:35;27.40;53.60
56172;DHT22;42052;41.634;-0.946;2022-09-01T08:25:06;27.30;53.60
56172;DHT22;42052;41.634;-0.946;2022-09-01T08:27:34;27.40;53.60
56172;DHT22;42052;41.634;-0.946;2022-09-01T08:30:11;27.40;53.60
56172;DHT22;42052;41.634;-0.946;2022-09-01T08:33:02;27.30;53.40
56172;DHT22;42052;41.634;-0.946;2022-09-01T08:35:28;27.40;53.60
56172;DHT22;42052;41.634;-0.946;2022-09-01T08:37:55;27.30;53.60
56172;DHT22;42052;41.634;-0.946;2022-09-01T08:40:21;27.30;53.60
56172;DHT22;42052;41.634;-0.946;2022-09-01T08:45:52;27.30;53.60
56172;DHT22;42052;41.634;-0.946;2022-09-01T08:48:33;27.40;53.60
56172;DHT22;42052;41.634;-0.946;2022-09-01T08:54:46;27.30;53.60
56172;DHT22;42052;41.634;-0.946;2022-09-01T08:56:58;27.40;53.60
56172;DHT22;42052;41.634;-0.946;2022-09-01T08:59:25;27.40;53.60
56172;DHT22;42052;41.634;-0.946;2022-09-01T09:01:59;27.40;54.00
56172;DHT22;42052;41.634;-0.946;2022-09-01T09:09:52;27.40;53.70
56172;DHT22;42052;41.634;-0.946;2022-09-01T09:15:36;27.40;53.60
56172;DHT22;42052;41.634;-0.946;2022-09-01T09:19:20;27.40;53.60
56172;DHT22;42052;41.634;-0.946;2022-09-01T09:21:20;27.40;53.70
56172;DHT22;42052;41.634;-0.946;2022-09-01T09:23:53;27.40;53.60
56172;DHT22;42052;41.634;-0.946;2022-09-01T09:26:21;27.50;53.70
56172;DHT22;42052;41.634;-0.946;2022-09-01T09:28:47;27.40;53.60
56172;DHT22;42052;41.634;-0.946;2022-09-01T09:31:35;27.40;53.70
56172;DHT22;42052;41.634;-0.946;2022-09-01T09:34:35;27.40;53.60
56172;DHT22;42052;41.634;-0.946;2022-09-01T09:37:21;27.40;53.60
56172;DHT22;42052;41.634;-0.946;2022-09-01T09:40:08;27.40;53.60
56172;DHT22;42052;41.634;-0.946;2022-09-01T09:42:39;27.50;53.70
56172;DHT22;42052;41.634;-0.946;2022-09-01T09:45:23;27.50;53.80
56172;DHT22;42052;41.634;-0.946;2022-09-01T09:47:50;27.50;53.80
56172;DHT22;42052;41.634;-0.946;2022-09-01T09:52:42;27.50;53.90
56172;DHT22;42052;41.634;-0.946;2022-09-01T09:55:28;27.50;54.00
56172;DHT22;42052;41.634;-0.946;2022-09-01T09:57:59;27.50;54.10
56172;DHT22;42052;41.634;-0.946;2022-09-01T10:00:31;27.50;54.30
56172;DHT22;42052;41.634;-0.946;2022-09-01T10:03:09;27.50;55.00
56172;DHT22;42052;41.634;-0.946;2022-09-01T10:10:53;27.50;54.20
56172;DHT22;42052;41.634;-0.946;2022-09-01T10:13:22;27.50;54.20
56172;DHT22;42052;41.634;-0.946;2022-09-01T10:15:50;27.50;54.20
56172;DHT22;42052;41.634;-0.946;2022-09-01T10:18:19;27.50;54.10
56172;DHT22;42052;41.634;-0.946;2022-09-01T10:21:00;27.50;54.20
56172;DHT22;42052;41.634;-0.946;2022-09-01T10:23:28;27.60;54.30
56172;DHT22;42052;41.634;-0.946;2022-09-01T10:26:01;27.60;54.30
56172;DHT22;42052;41.634;-0.946;2022-09-01T10:28:31;27.50;54.10
56172;DHT22;42052;41.634;-0.946;2022-09-01T10:30:58;27.60;54.30
56172;DHT22;42052;41.634;-0.946;2022-09-01T10:33:26;27.60;54.40
56172;DHT22;42052;41.634;-0.946;2022-09-01T10:35:53;27.60;54.50
56172;DHT22;42052;41.634;-0.946;2022-09-01T10:38:29;27.60;54.60
56172;DHT22;42052;41.634;-0.946;2022-09-01T10:40:56;27.60;54.70
56172;DHT22;42052;41.634;-0.946;2022-09-01T10:48:34;27.60;54.90
56172;DHT22;42052;41.634;-0.946;2022-09-01T10:53:44;27.70;55.00
56172;DHT22;42052;41.634;-0.946;2022-09-01T10:56:34;27.70;54.90
56172;DHT22;42052;41.634;-0.946;2022-09-01T11:04:15;27.60;55.00
56172;DHT22;42052;41.634;-0.946;2022-09-01T11:09:25;27.60;55.00
56172;DHT22;42052;41.634;-0.946;2022-09-01T11:17:35;27.70;55.00
56172;DHT22;42052;41.634;-0.946;2022-09-01T11:20:08;27.70;55.00
56172;DHT22;42052;41.634;-0.946;2022-09-01T11:30:41;27.80;55.00
56172;DHT22;42052;41.634;-0.946;2022-09-01T11:35:45;27.80;55.00
56172;DHT22;42052;41.634;-0.946;2022-09-01T11:38:14;27.80;54.90
56172;DHT22;42052;41.634;-0.946;2022-09-01T11:40:41;27.80;54.90
56172;DHT22;42052;41.634;-0.946;2022-09-01T11:43:14;27.80;54.90
56172;DHT22;42052;41.634;-0.946;2022-09-01T11:45:55;27.80;54.90
56172;DHT22;42052;41.634;-0.946;2022-09-01T11:48:23;27.80;54.90
56172;DHT22;42052;41.634;-0.946;2022-09-01T11:51:00;27.80;55.00
56172;DHT22;42052;41.634;-0.946;2022-09-01T11:53:26;27.80;54.90
56172;DHT22;42052;41.634;-0.946;2022-09-01T11:55:54;27.80;54.90
56172;DHT22;42052;41.634;-0.946;2022-09-01T12:00:56;27.80;54.90
56172;DHT22;42052;41.634;-0.946;2022-09-01T12:03:29;27.80;54.90
56172;DHT22;42052;41.634;-0.946;2022-09-01T12:05:59;27.80;54.80
56172;DHT22;42052;41.634;-0.946;2022-09-01T12:08:31;27.80;54.90
56172;DHT22;42052;41.634;-0.946;2022-09-01T12:11:23;27.80;54.80
56172;DHT22;42052;41.634;-0.946;2022-09-01T12:14:01;27.90;54.90
56172;DHT22;42052;41.634;-0.946;2022-09-01T12:16:30;27.90;54.90
56172;DHT22;42052;41.634;-0.946;2022-09-01T12:18:58;27.90;54.80
56172;DHT22;42052;41.634;-0.946;2022-09-01T12:23:50;27.80;54.90
56172;DHT22;42052;41.634;-0.946;2022-09-01T12:26:34;27.90;55.00
56172;DHT22;42052;41.634;-0.946;2022-09-01T12:28:59;27.90;54.90
56172;DHT22;42052;41.634;-0.946;2022-09-01T12:31:26;27.90;54.90
56172;DHT22;42052;41.634;-0.946;2022-09-01T12:33:54;27.90;54.80
56172;DHT22;42052;41.634;-0.946;2022-09-01T12:36:32;27.90;54.80
56172;DHT22;42052;41.634;-0.946;2022-09-01T12:39:22;28.00;54.90
56172;DHT22;42052;41.634;-0.946;2022-09-01T12:42:05;27.90;54.80
56172;DHT22;42052;41.634;-0.946;2022-09-01T12:47:03;27.90;54.80
56172;DHT22;42052;41.634;-0.946;2022-09-01T12:49:45;28.00;54.90
56172;DHT22;42052;41.634;-0.946;2022-09-01T12:54:47;28.00;54.90
56172;DHT22;42052;41.634;-0.946;2022-09-01T13:00:23;28.00;54.90
56172;DHT22;42052;41.634;-0.946;2022-09-01T13:05:41;28.00;54.80
56172;DHT22;42052;41.634;-0.946;2022-09-01T13:08:11;28.00;54.80
56172;DHT22;42052;41.634;-0.946;2022-09-01T13:10:40;28.00;54.80
56172;DHT22;42052;41.634;-0.946;2022-09-01T13:13:08;28.00;54.80
56172;DHT22;42052;41.634;-0.946;2022-09-01T13:15:39;28.00;54.80
56172;DHT22;42052;41.634;-0.946;2022-09-01T13:18:05;28.00;54.80
56172;DHT22;42052;41.634;-0.946;2022-09-01T13:20:31;28.00;54.80
56172;DHT22;42052;41.634;-0.946;2022-09-01T13:22:57;28.00;54.90
56172;DHT22;42052;41.634;-0.946;2022-09-01T13:25:24;28.00;54.90
56172;DHT22;42052;41.634;-0.946;2022-09-01T13:27:51;28.00;54.90
56172;DHT22;42052;41.634;-0.946;2022-09-01T13:30:21;28.00;54.90
56172;DHT22;42052;41.634;-0.946;2022-09-01T13:32:48;28.00;55.10
56172;DHT22;42052;41.634;-0.946;2022-09-01T13:35:17;28.10;55.10
56172;DHT22;42052;41.634;-0.946;2022-09-01T13:37:46;28.10;55.00
56172;DHT22;42052;41.634;-0.946;2022-09-01T13:40:14;28.10;55.00
56172;DHT22;42052;41.634;-0.946;2022-09-01T13:42:42;28.10;55.10
56172;DHT22;42052;41.634;-0.946;2022-09-01T13:45:09;28.10;55.00
56172;DHT22;42052;41.634;-0.946;2022-09-01T13:47:41;28.00;55.00
56172;DHT22;42052;41.634;-0.946;2022-09-01T13:50:09;28.10;55.00
56172;DHT22;42052;41.634;-0.946;2022-09-01T13:52:36;28.10;55.00
56172;DHT22;42052;41.634;-0.946;2022-09-01T13:55:04;28.10;55.00
56172;DHT22;42052;41.634;-0.946;2022-09-01T13:57:30;28.10;55.10
56172;DHT22;42052;41.634;-0.946;2022-09-01T13:59:58;28.10;55.10
56172;DHT22;42052;41.634;-0.946;2022-09-01T14:02:24;28.10;55.00
56172;DHT22;42052;41.634;-0.946;2022-09-01T14:04:50;28.10;55.10
56172;DHT22;42052;41.634;-0.946;2022-09-01T14:07:16;28.10;55.10
56172;DHT22;42052;41.634;-0.946;2022-09-01T14:09:44;28.10;55.00
56172;DHT22;42052;41.634;-0.946;2022-09-01T14:12:10;28.10;55.00
56172;DHT22;42052;41.634;-0.946;2022-09-01T14:14:36;28.10;55.00
56172;DHT22;42052;41.634;-0.946;2022-09-01T14:17:34;28.10;55.00
56172;DHT22;42052;41.634;-0.946;2022-09-01T14:20:00;28.10;55.00
56172;DHT22;42052;41.634;-0.946;2022-09-01T14:22:26;28.10;55.00
56172;DHT22;42052;41.634;-0.946;2022-09-01T14:24:52;28.10;55.00
56172;DHT22;42052;41.634;-0.946;2022-09-01T14:27:18;28.20;55.00
56172;DHT22;42052;41.634;-0.946;2022-09-01T14:29:48;28.10;54.90
56172;DHT22;42052;41.634;-0.946;2022-09-01T14:32:15;28.10;55.00
56172;DHT22;42052;41.634;-0.946;2022-09-01T14:34:42;28.10;54.90
56172;DHT22;42052;41.634;-0.946;2022-09-01T14:37:09;28.10;54.90
56172;DHT22;42052;41.634;-0.946;2022-09-01T14:39:34;28.10;54.90
56172;DHT22;42052;41.634;-0.946;2022-09-01T14:42:00;28.20;54.90
56172;DHT22;42052;41.634;-0.946;2022-09-01T14:44:26;28.10;54.80
56172;DHT22;42052;41.634;-0.946;2022-09-01T14:46:52;28.10;54.90
56172;DHT22;42052;41.634;-0.946;2022-09-01T14:49:19;28.20;55.10
56172;DHT22;42052;41.634;-0.946;2022-09-01T14:51:45;28.20;55.10
56172;DHT22;42052;41.634;-0.946;2022-09-01T14:54:11;28.20;55.10
56172;DHT22;42052;41.634;-0.946;2022-09-01T14:56:37;28.20;55.10
56172;DHT22;42052;41.634;-0.946;2022-09-01T14:59:03;28.20;55.10
56172;DHT22;42052;41.634;-0.946;2022-09-01T15:01:29;28.20;55.10
56172;DHT22;42052;41.634;-0.946;2022-09-01T15:03:55;28.20;55.10
56172;DHT22;42052;41.634;-0.946;2022-09-01T15:06:22;28.20;55.10
56172;DHT22;42052;41.634;-0.946;2022-09-01T15:08:48;28.20;55.10
56172;DHT22;42052;41.634;-0.946;2022-09-01T15:11:17;28.20;55.10
56172;DHT22;42052;41.634;-0.946;2022-09-01T15:13:44;28.20;55.10
56172;DHT22;42052;41.634;-0.946;2022-09-01T15:16:21;28.20;55.10
56172;DHT22;42052;41.634;-0.946;2022-09-01T15:18:47;28.20;55.10
56172;DHT22;42052;41.634;-0.946;2022-09-01T15:21:28;28.20;55.10
56172;DHT22;42052;41.634;-0.946;2022-09-01T15:23:56;28.20;55.10
56172;DHT22;42052;41.634;-0.946;2022-09-01T15:26:22;28.20;55.10
56172;DHT22;42052;41.634;-0.946;2022-09-01T15:28:49;28.20;55.10
56172;DHT22;42052;41.634;-0.946;2022-09-01T15:31:17;28.20;55.10
56172;DHT22;42052;41.634;-0.946;2022-09-01T15:33:44;28.20;55.00
56172;DHT22;42052;41.634;-0.946;2022-09-01T15:36:18;28.20;55.00
56172;DHT22;42052;41.634;-0.946;2022-09-01T15:38:45;28.20;55.00
56172;DHT22;42052;41.634;-0.946;2022-09-01T15:41:17;28.20;55.00
56172;DHT22;42052;41.634;-0.946;2022-09-01T15:43:43;28.20;55.00
56172;DHT22;42052;41.634;-0.946;2022-09-01T15:46:09;28.20;55.10
56172;DHT22;42052;41.634;-0.946;2022-09-01T15:48:36;28.20;55.00
56172;DHT22;42052;41.634;-0.946;2022-09-01T15:51:26;28.20;55.00
56172;DHT22;42052;41.634;-0.946;2022-09-01T15:53:57;28.20;55.00
56172;DHT22;42052;41.634;-0.946;2022-09-01T15:56:25;28.20;55.00
56172;DHT22;42052;41.634;-0.946;2022-09-01T15:58:51;28.20;55.00
56172;DHT22;42052;41.634;-0.946;2022-09-01T16:01:18;28.20;55.10
56172;DHT22;42052;41.634;-0.946;2022-09-01T16:03:44;28.20;55.10
56172;DHT22;42052;41.634;-0.946;2022-09-01T16:06:10;28.20;55.00
56172;DHT22;42052;41.634;-0.946;2022-09-01T16:08:39;28.20;55.10
56172;DHT22;42052;41.634;-0.946;2022-09-01T16:11:07;28.20;55.00
56172;DHT22;42052;41.634;-0.946;2022-09-01T16:13:41;28.30;55.10
56172;DHT22;42052;41.634;-0.946;2022-09-01T16:24:10;28.00;49.70
56172;DHT22;42052;41.634;-0.946;2022-09-01T16:26:37;27.90;49.00
56172;DHT22;42052;41.634;-0.946;2022-09-01T16:29:13;27.80;48.40
56172;DHT22;42052;41.634;-0.946;2022-09-01T16:31:39;27.70;47.80
56172;DHT22;42052;41.634;-0.946;2022-09-01T16:34:16;27.60;47.40
56172;DHT22;42052;41.634;-0.946;2022-09-01T16:39:31;27.40;46.70
56172;DHT22;42052;41.634;-0.946;2022-09-01T16:47:52;27.20;46.00
56172;DHT22;42052;41.634;-0.946;2022-09-01T16:56:33;27.00;49.40
56172;DHT22;42052;41.634;-0.946;2022-09-01T17:12:48;27.10;56.40
56172;DHT22;42052;41.634;-0.946;2022-09-01T17:15:19;27.10;55.10
56172;DHT22;42052;41.634;-0.946;2022-09-01T17:18:13;27.10;53.10
56172;DHT22;42052;41.634;-0.946;2022-09-01T17:20:50;27.10;51.40